EKHM weather

Hammer Glider Field
Central Jutland, Denmark

Public forecast

Using degrees Celsius for public forecast. Weather courtesy of forecast.io.

METAR (pilot weather report)

Closest report is Billund Airport, 14.2 nm (26.2 km) SW. Retrieved 2019/04/22 02:20 UTC (0 seconds ago):

EKBI 220220Z AUTO 10006KT 9999 NCD 07/01 Q1019

TAF (pilot weather forecast)

Forecast is more than 12 hours old.

Closest forecast is Billund Airport, 14.2 nm (26.2 km) SW. Retrieved 2019/04/21 00:09 UTC (1 day ago):

TAF EKBI 212301Z 2200/2224 07005KT CAVOK BECMG 2205/2208 11012KT TEMPO 2212/2217 11015G28KT